sensor_id;sensor_type;location;lat;lon;timestamp;P1;durP1;ratioP1;P2;durP2;ratioP2
18194;SDS011;9223;50.988;3.162;2022-11-15T00:02:30;15.63;;;10.75;;
18194;SDS011;9223;50.988;3.162;2022-11-15T00:08:34;15.77;;;10.02;;
18194;SDS011;9223;50.988;3.162;2022-11-15T00:14:38;19.05;;;11.98;;
18194;SDS011;9223;50.988;3.162;2022-11-15T00:20:43;19.00;;;11.43;;
18194;SDS011;9223;50.988;3.162;2022-11-15T00:26:47;17.58;;;10.77;;
18194;SDS011;9223;50.988;3.162;2022-11-15T00:32:50;16.23;;;10.73;;
18194;SDS011;9223;50.988;3.162;2022-11-15T00:38:55;17.25;;;10.00;;
18194;SDS011;9223;50.988;3.162;2022-11-15T00:44:58;13.20;;;7.53;;
18194;SDS011;9223;50.988;3.162;2022-11-15T00:51:02;11.50;;;7.85;;
18194;SDS011;9223;50.988;3.162;2022-11-15T00:57:06;12.13;;;8.45;;
18194;SDS011;9223;50.988;3.162;2022-11-15T01:03:10;15.00;;;8.55;;
18194;SDS011;9223;50.988;3.162;2022-11-15T01:09:13;12.57;;;8.70;;
18194;SDS011;9223;50.988;3.162;2022-11-15T01:15:18;11.48;;;7.53;;
18194;SDS011;9223;50.988;3.162;2022-11-15T01:21:22;10.43;;;6.85;;
18194;SDS011;9223;50.988;3.162;2022-11-15T01:27:25;11.80;;;6.65;;
18194;SDS011;9223;50.988;3.162;2022-11-15T01:33:30;9.15;;;6.07;;
18194;SDS011;9223;50.988;3.162;2022-11-15T01:39:34;8.10;;;5.28;;
18194;SDS011;9223;50.988;3.162;2022-11-15T01:45:37;10.25;;;6.25;;
18194;SDS011;9223;50.988;3.162;2022-11-15T01:51:42;10.43;;;5.75;;
18194;SDS011;9223;50.988;3.162;2022-11-15T01:57:46;6.78;;;4.50;;
18194;SDS011;9223;50.988;3.162;2022-11-15T02:03:51;7.63;;;4.72;;
18194;SDS011;9223;50.988;3.162;2022-11-15T02:09:56;9.23;;;5.13;;
18194;SDS011;9223;50.988;3.162;2022-11-15T02:16:04;7.43;;;4.15;;
18194;SDS011;9223;50.988;3.162;2022-11-15T02:22:14;7.78;;;3.78;;
18194;SDS011;9223;50.988;3.162;2022-11-15T02:28:30;4.10;;;3.10;;
18194;SDS011;9223;50.988;3.162;2022-11-15T02:34:43;5.22;;;3.40;;
18194;SDS011;9223;50.988;3.162;2022-11-15T02:40:52;7.68;;;3.35;;
18194;SDS011;9223;50.988;3.162;2022-11-15T02:46:58;6.63;;;2.80;;
18194;SDS011;9223;50.988;3.162;2022-11-15T02:53:25;5.75;;;3.22;;
18194;SDS011;9223;50.988;3.162;2022-11-15T02:59:43;8.05;;;2.38;;
18194;SDS011;9223;50.988;3.162;2022-11-15T03:05:50;5.47;;;2.13;;
18194;SDS011;9223;50.988;3.162;2022-11-15T03:11:57;5.45;;;2.22;;
18194;SDS011;9223;50.988;3.162;2022-11-15T03:18:04;5.13;;;2.22;;
18194;SDS011;9223;50.988;3.162;2022-11-15T03:24:08;6.43;;;2.15;;
18194;SDS011;9223;50.988;3.162;2022-11-15T03:30:13;8.00;;;2.85;;
18194;SDS011;9223;50.988;3.162;2022-11-15T03:36:16;3.40;;;2.63;;
18194;SDS011;9223;50.988;3.162;2022-11-15T03:42:21;6.25;;;3.28;;
18194;SDS011;9223;50.988;3.162;2022-11-15T03:48:27;3.97;;;3.15;;
18194;SDS011;9223;50.988;3.162;2022-11-15T03:54:34;6.13;;;3.75;;
18194;SDS011;9223;50.988;3.162;2022-11-15T04:00:37;6.90;;;3.58;;
18194;SDS011;9223;50.988;3.162;2022-11-15T04:06:42;6.93;;;3.83;;
18194;SDS011;9223;50.988;3.162;2022-11-15T04:12:46;6.95;;;3.47;;
18194;SDS011;9223;50.988;3.162;2022-11-15T04:18:49;5.30;;;3.50;;
18194;SDS011;9223;50.988;3.162;2022-11-15T04:25:14;5.72;;;3.05;;
18194;SDS011;9223;50.988;3.162;2022-11-15T04:31:24;5.57;;;3.10;;
18194;SDS011;9223;50.988;3.162;2022-11-15T04:37:27;6.68;;;4.45;;
18194;SDS011;9223;50.988;3.162;2022-11-15T04:43:32;6.63;;;4.68;;
18194;SDS011;9223;50.988;3.162;2022-11-15T04:49:35;8.88;;;5.53;;
18194;SDS011;9223;50.988;3.162;2022-11-15T04:55:39;5.78;;;4.20;;
18194;SDS011;9223;50.988;3.162;2022-11-15T05:01:44;7.47;;;4.22;;
18194;SDS011;9223;50.988;3.162;2022-11-15T05:07:47;6.85;;;3.97;;
18194;SDS011;9223;50.988;3.162;2022-11-15T05:13:50;7.72;;;3.63;;
18194;SDS011;9223;50.988;3.162;2022-11-15T05:19:55;6.50;;;3.47;;
18194;SDS011;9223;50.988;3.162;2022-11-15T05:25:59;6.85;;;3.78;;
18194;SDS011;9223;50.988;3.162;2022-11-15T05:32:09;6.93;;;3.80;;
18194;SDS011;9223;50.988;3.162;2022-11-15T05:38:16;7.63;;;3.72;;
18194;SDS011;9223;50.988;3.162;2022-11-15T05:44:20;4.88;;;3.13;;
18194;SDS011;9223;50.988;3.162;2022-11-15T05:50:24;5.15;;;3.00;;
18194;SDS011;9223;50.988;3.162;2022-11-15T05:56:29;7.25;;;3.75;;
18194;SDS011;9223;50.988;3.162;2022-11-15T06:02:33;11.57;;;6.55;;
18194;SDS011;9223;50.988;3.162;2022-11-15T06:08:36;12.05;;;6.63;;
18194;SDS011;9223;50.988;3.162;2022-11-15T06:14:41;19.48;;;12.27;;
18194;SDS011;9223;50.988;3.162;2022-11-15T06:20:44;26.30;;;14.50;;
18194;SDS011;9223;50.988;3.162;2022-11-15T06:26:48;7.78;;;5.63;;
18194;SDS011;9223;50.988;3.162;2022-11-15T06:32:54;11.85;;;8.35;;
18194;SDS011;9223;50.988;3.162;2022-11-15T06:39:01;20.77;;;9.52;;
18194;SDS011;9223;50.988;3.162;2022-11-15T06:45:05;8.43;;;5.65;;
18194;SDS011;9223;50.988;3.162;2022-11-15T06:51:10;22.08;;;13.57;;
18194;SDS011;9223;50.988;3.162;2022-11-15T06:57:13;15.73;;;10.13;;
18194;SDS011;9223;50.988;3.162;2022-11-15T07:03:16;13.27;;;8.40;;
18194;SDS011;9223;50.988;3.162;2022-11-15T07:09:21;12.50;;;9.25;;
18194;SDS011;9223;50.988;3.162;2022-11-15T07:15:25;14.13;;;9.60;;
18194;SDS011;9223;50.988;3.162;2022-11-15T07:21:29;13.48;;;9.27;;
18194;SDS011;9223;50.988;3.162;2022-11-15T07:27:34;11.57;;;7.88;;
18194;SDS011;9223;50.988;3.162;2022-11-15T07:33:37;8.10;;;6.40;;
18194;SDS011;9223;50.988;3.162;2022-11-15T07:39:41;10.55;;;5.80;;
18194;SDS011;9223;50.988;3.162;2022-11-15T07:45:46;7.78;;;4.97;;
18194;SDS011;9223;50.988;3.162;2022-11-15T07:51:55;10.48;;;4.35;;
18194;SDS011;9223;50.988;3.162;2022-11-15T07:58:01;7.60;;;3.75;;
18194;SDS011;9223;50.988;3.162;2022-11-15T08:04:06;8.35;;;4.18;;
18194;SDS011;9223;50.988;3.162;2022-11-15T08:10:09;8.02;;;3.50;;
18194;SDS011;9223;50.988;3.162;2022-11-15T08:16:13;4.45;;;3.10;;
18194;SDS011;9223;50.988;3.162;2022-11-15T08:22:18;7.25;;;3.10;;
18194;SDS011;9223;50.988;3.162;2022-11-15T08:28:22;5.18;;;2.88;;
18194;SDS011;9223;50.988;3.162;2022-11-15T08:34:25;3.35;;;2.85;;
18194;SDS011;9223;50.988;3.162;2022-11-15T08:40:30;4.45;;;2.40;;
18194;SDS011;9223;50.988;3.162;2022-11-15T08:46:33;5.10;;;2.03;;
18194;SDS011;9223;50.988;3.162;2022-11-15T08:52:37;8.43;;;2.30;;
18194;SDS011;9223;50.988;3.162;2022-11-15T08:58:41;4.07;;;2.33;;
18194;SDS011;9223;50.988;3.162;2022-11-15T09:04:45;7.72;;;2.17;;
18194;SDS011;9223;50.988;3.162;2022-11-15T09:10:49;3.90;;;1.90;;
18194;SDS011;9223;50.988;3.162;2022-11-15T09:16:54;5.95;;;1.70;;
18194;SDS011;9223;50.988;3.162;2022-11-15T09:22:59;4.65;;;2.13;;
18194;SDS011;9223;50.988;3.162;2022-11-15T09:29:03;4.68;;;1.75;;
18194;SDS011;9223;50.988;3.162;2022-11-15T09:35:08;4.13;;;1.92;;
18194;SDS011;9223;50.988;3.162;2022-11-15T09:41:22;5.43;;;1.40;;
18194;SDS011;9223;50.988;3.162;2022-11-15T09:47:33;3.35;;;1.50;;
18194;SDS011;9223;50.988;3.162;2022-11-15T09:53:46;6.85;;;1.80;;
18194;SDS011;9223;50.988;3.162;2022-11-15T10:00:12;4.30;;;1.58;;
18194;SDS011;9223;50.988;3.162;2022-11-15T10:06:38;2.33;;;1.40;;
18194;SDS011;9223;50.988;3.162;2022-11-15T10:12:47;4.93;;;1.58;;
18194;SDS011;9223;50.988;3.162;2022-11-15T10:18:52;5.03;;;1.65;;
18194;SDS011;9223;50.988;3.162;2022-11-15T10:25:06;7.03;;;1.77;;
18194;SDS011;9223;50.988;3.162;2022-11-15T10:31:25;6.10;;;1.63;;
18194;SDS011;9223;50.988;3.162;2022-11-15T10:37:29;2.10;;;1.20;;
18194;SDS011;9223;50.988;3.162;2022-11-15T10:43:33;5.00;;;2.03;;
18194;SDS011;9223;50.988;3.162;2022-11-15T10:49:38;5.72;;;1.33;;
18194;SDS011;9223;50.988;3.162;2022-11-15T10:55:57;5.88;;;1.40;;
18194;SDS011;9223;50.988;3.162;2022-11-15T11:02:00;3.90;;;1.42;;
18194;SDS011;9223;50.988;3.162;2022-11-15T11:08:09;4.82;;;1.30;;
18194;SDS011;9223;50.988;3.162;2022-11-15T11:14:22;2.35;;;1.23;;
18194;SDS011;9223;50.988;3.162;2022-11-15T11:20:29;6.72;;;1.27;;
18194;SDS011;9223;50.988;3.162;2022-11-15T11:26:38;4.50;;;1.50;;
18194;SDS011;9223;50.988;3.162;2022-11-15T11:32:49;4.85;;;1.58;;
18194;SDS011;9223;50.988;3.162;2022-11-15T11:39:02;6.72;;;1.85;;
18194;SDS011;9223;50.988;3.162;2022-11-15T11:45:15;4.00;;;1.05;;
18194;SDS011;9223;50.988;3.162;2022-11-15T11:51:20;6.18;;;1.38;;
18194;SDS011;9223;50.988;3.162;2022-11-15T11:57:29;6.00;;;1.45;;
18194;SDS011;9223;50.988;3.162;2022-11-15T12:03:38;4.60;;;1.27;;
18194;SDS011;9223;50.988;3.162;2022-11-15T12:09:43;5.05;;;1.77;;
18194;SDS011;9223;50.988;3.162;2022-11-15T12:15:48;5.40;;;1.70;;
18194;SDS011;9223;50.988;3.162;2022-11-15T12:21:58;2.22;;;1.45;;
18194;SDS011;9223;50.988;3.162;2022-11-15T12:28:06;4.93;;;1.42;;
18194;SDS011;9223;50.988;3.162;2022-11-15T12:34:15;3.88;;;1.50;;
18194;SDS011;9223;50.988;3.162;2022-11-15T12:40:37;3.67;;;1.45;;
18194;SDS011;9223;50.988;3.162;2022-11-15T12:47:01;2.45;;;1.75;;
18194;SDS011;9223;50.988;3.162;2022-11-15T13:05:53;2.30;;;1.85;;
18194;SDS011;9223;50.988;3.162;2022-11-15T13:11:58;2.85;;;1.52;;
18194;SDS011;9223;50.988;3.162;2022-11-15T13:18:24;3.88;;;2.00;;
18194;SDS011;9223;50.988;3.162;2022-11-15T13:24:30;2.17;;;1.92;;
18194;SDS011;9223;50.988;3.162;2022-11-15T13:30:34;2.25;;;1.10;;
18194;SDS011;9223;50.988;3.162;2022-11-15T13:36:37;2.22;;;1.40;;
18194;SDS011;9223;50.988;3.162;2022-11-15T13:42:42;2.35;;;1.70;;
18194;SDS011;9223;50.988;3.162;2022-11-15T13:48:46;3.42;;;1.90;;
18194;SDS011;9223;50.988;3.162;2022-11-15T13:54:50;4.63;;;2.28;;
18194;SDS011;9223;50.988;3.162;2022-11-15T14:01:01;3.22;;;1.95;;
18194;SDS011;9223;50.988;3.162;2022-11-15T14:07:05;2.10;;;1.90;;
18194;SDS011;9223;50.988;3.162;2022-11-15T14:13:10;2.42;;;1.98;;
18194;SDS011;9223;50.988;3.162;2022-11-15T14:19:37;2.67;;;1.58;;
18194;SDS011;9223;50.988;3.162;2022-11-15T14:25:51;6.35;;;1.52;;
18194;SDS011;9223;50.988;3.162;2022-11-15T14:32:05;3.13;;;1.50;;
18194;SDS011;9223;50.988;3.162;2022-11-15T14:38:10;4.05;;;2.03;;
18194;SDS011;9223;50.988;3.162;2022-11-15T14:44:13;3.38;;;1.90;;
18194;SDS011;9223;50.988;3.162;2022-11-15T14:50:20;4.20;;;1.83;;
18194;SDS011;9223;50.988;3.162;2022-11-15T14:56:25;4.70;;;2.30;;
18194;SDS011;9223;50.988;3.162;2022-11-15T15:02:29;3.45;;;1.98;;
18194;SDS011;9223;50.988;3.162;2022-11-15T15:08:32;3.08;;;1.95;;
18194;SDS011;9223;50.988;3.162;2022-11-15T15:14:38;2.60;;;2.25;;
18194;SDS011;9223;50.988;3.162;2022-11-15T15:20:41;2.92;;;2.63;;
18194;SDS011;9223;50.988;3.162;2022-11-15T15:26:46;2.25;;;2.03;;
18194;SDS011;9223;50.988;3.162;2022-11-15T15:32:52;3.55;;;2.05;;
18194;SDS011;9223;50.988;3.162;2022-11-15T15:38:56;2.92;;;2.70;;
18194;SDS011;9223;50.988;3.162;2022-11-15T15:44:59;3.05;;;2.75;;
18194;SDS011;9223;50.988;3.162;2022-11-15T15:51:04;5.55;;;3.22;;
18194;SDS011;9223;50.988;3.162;2022-11-15T15:57:20;2.80;;;2.50;;
18194;SDS011;9223;50.988;3.162;2022-11-15T16:03:23;4.57;;;3.17;;
18194;SDS011;9223;50.988;3.162;2022-11-15T16:09:30;3.20;;;1.88;;
18194;SDS011;9223;50.988;3.162;2022-11-15T16:15:52;8.48;;;4.60;;
18194;SDS011;9223;50.988;3.162;2022-11-15T16:21:56;4.70;;;3.13;;
18194;SDS011;9223;50.988;3.162;2022-11-15T16:28:00;4.20;;;3.17;;
18194;SDS011;9223;50.988;3.162;2022-11-15T16:34:04;5.38;;;2.92;;
18194;SDS011;9223;50.988;3.162;2022-11-15T16:40:10;3.92;;;3.17;;
18194;SDS011;9223;50.988;3.162;2022-11-15T16:46:17;5.32;;;3.38;;
18194;SDS011;9223;50.988;3.162;2022-11-15T16:52:21;3.40;;;2.97;;
18194;SDS011;9223;50.988;3.162;2022-11-15T16:58:24;4.03;;;3.30;;
18194;SDS011;9223;50.988;3.162;2022-11-15T17:04:29;4.00;;;3.60;;
18194;SDS011;9223;50.988;3.162;2022-11-15T17:10:34;3.90;;;3.47;;
18194;SDS011;9223;50.988;3.162;2022-11-15T17:16:41;4.25;;;3.28;;
18194;SDS011;9223;50.988;3.162;2022-11-15T17:22:46;3.90;;;3.53;;
18194;SDS011;9223;50.988;3.162;2022-11-15T17:28:53;9.10;;;6.93;;
18194;SDS011;9223;50.988;3.162;2022-11-15T17:34:56;16.95;;;15.55;;
18194;SDS011;9223;50.988;3.162;2022-11-15T17:41:02;29.27;;;26.33;;
18194;SDS011;9223;50.988;3.162;2022-11-15T17:47:06;35.67;;;32.63;;
18194;SDS011;9223;50.988;3.162;2022-11-15T17:53:09;8.68;;;6.57;;
18194;SDS011;9223;50.988;3.162;2022-11-15T17:59:14;18.92;;;9.85;;
18194;SDS011;9223;50.988;3.162;2022-11-15T18:05:21;13.23;;;8.73;;
18194;SDS011;9223;50.988;3.162;2022-11-15T18:11:25;18.75;;;10.88;;
18194;SDS011;9223;50.988;3.162;2022-11-15T18:17:30;18.42;;;10.13;;
18194;SDS011;9223;50.988;3.162;2022-11-15T18:23:34;16.33;;;9.73;;
18194;SDS011;9223;50.988;3.162;2022-11-15T18:29:37;9.10;;;7.32;;
18194;SDS011;9223;50.988;3.162;2022-11-15T18:35:42;6.78;;;5.32;;
18194;SDS011;9223;50.988;3.162;2022-11-15T18:41:45;6.50;;;5.90;;
18194;SDS011;9223;50.988;3.162;2022-11-15T18:47:49;5.53;;;5.03;;
18194;SDS011;9223;50.988;3.162;2022-11-15T18:53:54;9.30;;;6.88;;
18194;SDS011;9223;50.988;3.162;2022-11-15T18:59:58;29.70;;;17.05;;
18194;SDS011;9223;50.988;3.162;2022-11-15T19:06:02;6.57;;;5.05;;
18194;SDS011;9223;50.988;3.162;2022-11-15T19:12:08;9.13;;;8.23;;
18194;SDS011;9223;50.988;3.162;2022-11-15T19:18:11;8.05;;;5.68;;
18194;SDS011;9223;50.988;3.162;2022-11-15T19:24:14;29.20;;;11.85;;
18194;SDS011;9223;50.988;3.162;2022-11-15T19:30:20;120.87;;;36.57;;
18194;SDS011;9223;50.988;3.162;2022-11-15T19:36:24;110.38;;;33.15;;
18194;SDS011;9223;50.988;3.162;2022-11-15T19:42:27;19.60;;;14.15;;
18194;SDS011;9223;50.988;3.162;2022-11-15T19:48:32;8.60;;;6.38;;
18194;SDS011;9223;50.988;3.162;2022-11-15T19:54:38;5.65;;;4.88;;
18194;SDS011;9223;50.988;3.162;2022-11-15T20:00:42;5.22;;;4.53;;
18194;SDS011;9223;50.988;3.162;2022-11-15T20:06:47;6.18;;;5.20;;
18194;SDS011;9223;50.988;3.162;2022-11-15T20:12:50;6.72;;;6.10;;
18194;SDS011;9223;50.988;3.162;2022-11-15T20:18:54;9.13;;;6.05;;
18194;SDS011;9223;50.988;3.162;2022-11-15T20:24:59;7.30;;;5.80;;
18194;SDS011;9223;50.988;3.162;2022-11-15T20:31:03;8.68;;;7.68;;
18194;SDS011;9223;50.988;3.162;2022-11-15T20:37:06;9.23;;;8.18;;
18194;SDS011;9223;50.988;3.162;2022-11-15T20:43:12;13.30;;;8.73;;
18194;SDS011;9223;50.988;3.162;2022-11-15T20:49:16;9.70;;;7.65;;
18194;SDS011;9223;50.988;3.162;2022-11-15T20:55:20;7.53;;;6.07;;
18194;SDS011;9223;50.988;3.162;2022-11-15T21:01:24;8.70;;;5.97;;
18194;SDS011;9223;50.988;3.162;2022-11-15T21:07:28;5.97;;;4.95;;
18194;SDS011;9223;50.988;3.162;2022-11-15T21:13:32;5.88;;;5.15;;
18194;SDS011;9223;50.988;3.162;2022-11-15T21:19:36;6.30;;;4.47;;
18194;SDS011;9223;50.988;3.162;2022-11-15T21:25:40;8.25;;;6.05;;
18194;SDS011;9223;50.988;3.162;2022-11-15T21:31:43;7.93;;;6.25;;
18194;SDS011;9223;50.988;3.162;2022-11-15T21:37:48;7.95;;;6.30;;
18194;SDS011;9223;50.988;3.162;2022-11-15T21:43:57;9.65;;;5.60;;
18194;SDS011;9223;50.988;3.162;2022-11-15T21:50:00;5.47;;;4.13;;
18194;SDS011;9223;50.988;3.162;2022-11-15T21:56:06;4.93;;;3.00;;
18194;SDS011;9223;50.988;3.162;2022-11-15T22:02:09;2.38;;;1.88;;
18194;SDS011;9223;50.988;3.162;2022-11-15T22:08:15;1.65;;;1.55;;
18194;SDS011;9223;50.988;3.162;2022-11-15T22:14:20;2.05;;;1.40;;
18194;SDS011;9223;50.988;3.162;2022-11-15T22:20:24;2.42;;;1.40;;
18194;SDS011;9223;50.988;3.162;2022-11-15T22:26:45;3.15;;;1.70;;
18194;SDS011;9223;50.988;3.162;2022-11-15T22:32:50;2.15;;;1.60;;
18194;SDS011;9223;50.988;3.162;2022-11-15T22:38:53;3.22;;;2.22;;
18194;SDS011;9223;50.988;3.162;2022-11-15T22:44:57;4.45;;;2.65;;
18194;SDS011;9223;50.988;3.162;2022-11-15T22:51:02;2.90;;;2.08;;
18194;SDS011;9223;50.988;3.162;2022-11-15T22:57:06;2.75;;;2.30;;
18194;SDS011;9223;50.988;3.162;2022-11-15T23:03:09;3.88;;;2.95;;
18194;SDS011;9223;50.988;3.162;2022-11-15T23:09:14;9.48;;;5.22;;
18194;SDS011;9223;50.988;3.162;2022-11-15T23:15:18;13.70;;;7.47;;
18194;SDS011;9223;50.988;3.162;2022-11-15T23:21:22;13.73;;;7.07;;
18194;SDS011;9223;50.988;3.162;2022-11-15T23:27:44;14.55;;;8.93;;
18194;SDS011;9223;50.988;3.162;2022-11-15T23:33:48;7.30;;;6.20;;
18194;SDS011;9223;50.988;3.162;2022-11-15T23:40:00;9.98;;;6.63;;
18194;SDS011;9223;50.988;3.162;2022-11-15T23:46:05;7.80;;;5.07;;
18194;SDS011;9223;50.988;3.162;2022-11-15T23:52:09;5.68;;;4.00;;
18194;SDS011;9223;50.988;3.162;2022-11-15T23:58:12;5.95;;;4.10;;
